CheckWX is a tool to help pilots better visualize weather data.  It is not intended as a substitute for an official pre-flight weather briefing.

14:15:55 UTC

KCOE METAR
Coeur D'alene - Pappy Boyington Field Airport
Coeur D'alene, Idaho, USA
Current

20 mins ago

KCOE 221356Z AUTO 00000KT 10SM CLR 06/03 A3023 RMK AO2 SLP258 T00560028
Observed
Apr-22 @ 13:56 UTC
Visibility
10 SM
Flight Rules
VFR
Cloud Levels
  • Clear skies
Temperature
C / 43°F
Dewpoint
C / 37°F
Humidity
81%
Altimeter
30.23" Hg
Pressure
1023.72 hPa
Previous

1 hour ago

KCOE 221256Z AUTO 00000KT 10SM CLR 04/02 A3023 RMK AO2 SLP258 T00390017
Observed
Apr-22 @ 12:56 UTC
Visibility
10 SM
Flight Rules
VFR
Cloud Levels
  • Clear skies
Temperature
C / 39°F
Dewpoint
C / 36°F
Humidity
87%
Altimeter
30.23" Hg
Pressure
1023.72 hPa
Previous

2 hours ago

KCOE 221156Z AUTO 00000KT 10SM CLR 05/02 A3023 RMK AO2 SLP254 T00500022 10094 20044 50003
Observed
Apr-22 @ 11:56 UTC
Visibility
10 SM
Flight Rules
VFR
Cloud Levels
  • Clear skies
Temperature
C / 41°F
Dewpoint
C / 36°F
Humidity
81%
Altimeter
30.23" Hg
Pressure
1023.72 hPa